Time;durP1;ratioP1;P1;durP2;ratioP2;P2;SDS_P1;SDS_P2;PMS_P1;PMS_P2;Temp;Humidity;BMP_temperature;BMP_pressure;BME280_temperature;BME280_humidity;BME280_pressure;Samples;Min_cycle;Max_cycle;Signal;HPM_P1;HPM_P2
2022/09/29 00:01:26;;;;;;;5.15;4.65;;;;;;;;;;5113941;28;20138;-60
2022/09/29 00:03:52;;;;;;;6.57;4.80;;;;;;;;;;5114039;28;20139;-60
2022/09/29 00:06:18;;;;;;;6.18;4.82;;;;;;;;;;5114204;28;20044;-60
2022/09/29 00:08:45;;;;;;;5.95;4.72;;;;;;;;;;5113461;28;20040;-60
2022/09/29 00:11:12;;;;;;;6.20;4.82;;;;;;;;;;5113653;28;20059;-60
2022/09/29 00:13:38;;;;;;;5.75;4.88;;;;;;;;;;5114068;28;20131;-60
2022/09/29 00:16:04;;;;;;;6.45;5.60;;;;;;;;;;5113591;28;20040;-60
2022/09/29 00:18:31;;;;;;;8.55;5.20;;;;;;;;;;5113524;28;20085;-60
2022/09/29 00:21:02;;;;;;;6.75;5.45;;;;;;;;;;5113993;28;20092;-60
2022/09/29 00:23:28;;;;;;;6.40;5.45;;;;;;;;;;5113121;28;20050;-60
2022/09/29 00:26:03;;;;;;;5.72;4.70;;;;;;;;;;5105821;28;20375;-60
2022/09/29 00:28:31;;;;;;;6.90;5.10;;;;;;;;;;5093273;28;20074;-59
2022/09/29 00:31:00;;;;;;;7.38;5.00;;;;;;;;;;5113369;28;20437;-60
2022/09/29 00:33:30;;;;;;;5.97;4.70;;;;;;;;;;5095188;28;20047;-60
2022/09/29 00:36:00;;;;;;;5.38;4.80;;;;;;;;;;5113660;28;20398;-60
2022/09/29 00:38:27;;;;;;;5.72;4.20;;;;;;;;;;5094583;28;20447;-60
2022/09/29 00:40:53;;;;;;;5.45;4.85;;;;;;;;;;5113267;28;20051;-60
2022/09/29 00:43:24;;;;;;;5.93;4.78;;;;;;;;;;5113369;28;20052;-60
2022/09/29 00:45:53;;;;;;;7.00;5.63;;;;;;;;;;5112698;28;20050;-59
2022/09/29 00:48:23;;;;;;;6.28;4.75;;;;;;;;;;5113354;28;20039;-60
2022/09/29 00:50:51;;;;;;;10.07;5.03;;;;;;;;;;5113284;28;20087;-60
2022/09/29 00:53:18;;;;;;;5.55;4.85;;;;;;;;;;5112905;28;20039;-60
2022/09/29 00:55:53;;;;;;;8.00;4.85;;;;;;;;;;5113264;28;20047;-60
2022/09/29 00:58:27;;;;;;;6.05;4.50;;;;;;;;;;5113197;28;20058;-60
2022/09/29 01:00:54;;;;;;;5.78;3.92;;;;;;;;;;5112418;28;20126;-60
2022/09/29 01:03:21;;;;;;;8.20;4.85;;;;;;;;;;5112986;28;20055;-60
2022/09/29 01:05:51;;;;;;;5.32;4.05;;;;;;;;;;5112945;28;20037;-60
2022/09/29 01:08:24;;;;;;;6.53;4.28;;;;;;;;;;5112469;28;20040;-60
2022/09/29 01:10:50;;;;;;;;;;;;;;;;;;5112731;28;20052;-59
2022/09/29 01:13:16;;;;;;;7.38;4.57;;;;;;;;;;5113025;28;19922;-60
2022/09/29 01:15:42;;;;;;;5.22;4.40;;;;;;;;;;5112419;28;20581;-60
2022/09/29 01:18:08;;;;;;;7.88;4.45;;;;;;;;;;5112470;28;20058;-60
2022/09/29 01:20:38;;;;;;;5.05;4.13;;;;;;;;;;5112721;28;20165;-59
2022/09/29 01:23:23;;;;;;;4.10;3.63;;;;;;;;;;5111820;28;20035;-59
2022/09/29 01:26:01;;;;;;;5.60;3.78;;;;;;;;;;5105315;28;20036;-60
2022/09/29 01:28:27;;;;;;;5.00;4.00;;;;;;;;;;5091687;28;20038;-60
2022/09/29 01:31:08;;;;;;;4.70;3.08;;;;;;;;;;5092078;28;20123;-60
2022/09/29 01:33:39;;;;;;;4.35;3.33;;;;;;;;;;5091853;28;20046;-60
2022/09/29 01:36:30;;;;;;;3.40;3.10;;;;;;;;;;5091256;28;20044;-60
2022/09/29 01:38:56;;;;;;;3.85;3.20;;;;;;;;;;5092029;28;20391;-60
2022/09/29 01:41:24;;;;;;;3.47;3.17;;;;;;;;;;5091894;28;20052;-60
2022/09/29 01:44:11;;;;;;;4.32;3.10;;;;;;;;;;5091287;28;20040;-60
2022/09/29 01:46:39;;;;;;;4.00;3.33;;;;;;;;;;5091283;28;20040;-60
2022/09/29 01:49:06;;;;;;;3.83;2.92;;;;;;;;;;5091614;28;20119;-60
2022/09/29 01:51:37;;;;;;;2.60;2.40;;;;;;;;;;5091416;28;20040;-60
2022/09/29 01:54:06;;;;;;;3.13;2.40;;;;;;;;;;5091794;28;20382;-60
2022/09/29 01:56:35;;;;;;;3.53;2.53;;;;;;;;;;5091730;28;20046;-60
2022/09/29 01:59:10;;;;;;;3.47;2.80;;;;;;;;;;5091308;28;20086;-60
2022/09/29 02:01:39;;;;;;;3.47;3.17;;;;;;;;;;5091697;28;20113;-59
2022/09/29 02:04:11;;;;;;;3.20;2.90;;;;;;;;;;5096029;28;20035;-60
2022/09/29 02:06:42;;;;;;;3.78;3.03;;;;;;;;;;5111426;28;20122;-60
2022/09/29 02:09:10;;;;;;;3.00;2.67;;;;;;;;;;5111656;28;20466;-60
2022/09/29 02:11:38;;;;;;;3.00;2.80;;;;;;;;;;5111374;28;20292;-60
2022/09/29 02:14:12;;;;;;;2.30;2.10;;;;;;;;;;5111395;28;20685;-59
2022/09/29 02:16:43;;;;;;;2.38;2.15;;;;;;;;;;5111692;28;20039;-60
2022/09/29 02:19:18;;;;;;;3.65;2.55;;;;;;;;;;5111748;28;20383;-59
2022/09/29 02:21:44;;;;;;;3.17;2.88;;;;;;;;;;5111300;28;20044;-60
2022/09/29 02:24:13;;;;;;;3.80;3.00;;;;;;;;;;5111220;28;20043;-60
2022/09/29 02:26:40;;;;;;;3.92;3.17;;;;;;;;;;5097292;28;20131;-62
2022/09/29 02:29:07;;;;;;;4.20;3.75;;;;;;;;;;5090690;28;20554;-60
2022/09/29 02:31:33;;;;;;;6.82;3.58;;;;;;;;;;5091089;28;20073;-60
2022/09/29 02:34:00;;;;;;;5.50;3.92;;;;;;;;;;5091164;28;20047;-60
2022/09/29 02:36:39;;;;;;;7.82;3.72;;;;;;;;;;5090862;28;20369;-60
2022/09/29 02:39:06;;;;;;;17.52;4.72;;;;;;;;;;5072805;28;20040;-60
2022/09/29 02:41:35;;;;;;;10.10;4.60;;;;;;;;;;5110867;28;20040;-60
2022/09/29 02:44:10;;;;;;;8.32;4.18;;;;;;;;;;5110917;28;20088;-59
2022/09/29 02:46:54;;;;;;;6.22;3.92;;;;;;;;;;5111319;28;20042;-60
2022/09/29 02:49:39;;;;;;;5.70;4.18;;;;;;;;;;5111108;28;20134;-60
2022/09/29 02:52:15;;;;;;;6.13;3.60;;;;;;;;;;5110882;28;20032;-60
2022/09/29 02:54:44;;;;;;;4.65;3.40;;;;;;;;;;5111182;28;20373;-60
2022/09/29 02:57:13;;;;;;;2.90;2.25;;;;;;;;;;5110915;28;20039;-60
2022/09/29 02:59:49;;;;;;;5.63;2.58;;;;;;;;;;5111039;28;20458;-60
2022/09/29 03:02:15;;;;;;;19.15;3.90;;;;;;;;;;5111171;28;20067;-60
2022/09/29 03:04:41;;;;;;;7.35;3.33;;;;;;;;;;5110531;28;20389;-59
2022/09/29 03:07:07;;;;;;;10.90;3.03;;;;;;;;;;5075885;28;20061;-60
2022/09/29 03:09:33;;;;;;;5.50;3.00;;;;;;;;;;5110758;28;20048;-60
2022/09/29 03:11:59;;;;;;;23.63;3.90;;;;;;;;;;5110745;28;20039;-60
2022/09/29 03:14:25;;;;;;;6.55;2.97;;;;;;;;;;5111040;28;20582;-60
2022/09/29 03:16:51;;;;;;;8.07;2.85;;;;;;;;;;5110972;28;20103;-60
2022/09/29 03:19:17;;;;;;;9.95;2.92;;;;;;;;;;5110854;28;20138;-60
2022/09/29 03:21:43;;;;;;;14.80;2.80;;;;;;;;;;5110660;28;20069;-60
2022/09/29 03:24:09;;;;;;;21.13;3.53;;;;;;;;;;5110856;28;20047;-60
2022/09/29 03:26:36;;;;;;;22.52;3.30;;;;;;;;;;5097228;28;20067;-60
2022/09/29 03:29:02;;;;;;;19.95;3.42;;;;;;;;;;5090034;28;20036;-60
2022/09/29 03:31:28;;;;;;;33.95;4.22;;;;;;;;;;5090489;28;20052;-60
2022/09/29 03:33:54;;;;;;;73.32;5.85;;;;;;;;;;5090569;28;20184;-60
2022/09/29 03:36:20;;;;;;;24.05;3.65;;;;;;;;;;5110325;28;20629;-60
2022/09/29 03:38:47;;;;;;;27.02;4.20;;;;;;;;;;5110783;28;20118;-60
2022/09/29 03:41:13;;;;;;;14.52;3.38;;;;;;;;;;5110741;28;20363;-60
2022/09/29 03:43:39;;;;;;;11.13;3.28;;;;;;;;;;5110141;28;20466;-60
2022/09/29 03:46:05;;;;;;;7.95;3.30;;;;;;;;;;5110736;28;20118;-60
2022/09/29 03:48:33;;;;;;;11.77;3.70;;;;;;;;;;5110568;28;20042;-60
2022/09/29 03:51:00;;;;;;;7.30;3.95;;;;;;;;;;5109874;28;20046;-60
2022/09/29 03:53:26;;;;;;;12.63;4.18;;;;;;;;;;5110541;28;20620;-60
2022/09/29 03:55:52;;;;;;;9.20;3.60;;;;;;;;;;5110669;28;20043;-60
2022/09/29 03:58:18;;;;;;;8.50;3.97;;;;;;;;;;5112370;28;20044;-59
2022/09/29 04:00:45;;;;;;;15.45;4.38;;;;;;;;;;5114292;28;20068;-60
2022/09/29 04:03:11;;;;;;;20.83;4.00;;;;;;;;;;5095739;28;20083;-60
2022/09/29 04:05:38;;;;;;;26.38;4.45;;;;;;;;;;5113469;28;20040;-60
2022/09/29 04:08:05;;;;;;;19.92;4.20;;;;;;;;;;5114107;28;20032;-60
2022/09/29 04:10:33;;;;;;;7.93;4.20;;;;;;;;;;5113836;28;20063;-60
2022/09/29 04:12:59;;;;;;;4.07;3.67;;;;;;;;;;5113540;28;20097;-60
2022/09/29 04:15:25;;;;;;;9.50;3.80;;;;;;;;;;5114197;28;20505;-60
2022/09/29 04:17:53;;;;;;;5.22;3.50;;;;;;;;;;5113913;28;20441;-59
2022/09/29 04:20:19;;;;;;;22.80;4.63;;;;;;;;;;5113634;28;20052;-60
2022/09/29 04:22:45;;;;;;;11.05;3.55;;;;;;;;;;5114038;28;20079;-60
2022/09/29 04:25:11;;;;;;;4.25;2.97;;;;;;;;;;5111863;28;20092;-60
2022/09/29 04:27:37;;;;;;;5.35;3.55;;;;;;;;;;5093057;28;20032;-60
2022/09/29 04:30:04;;;;;;;5.70;3.65;;;;;;;;;;5093244;28;20044;-60
2022/09/29 04:32:30;;;;;;;5.82;3.45;;;;;;;;;;5093402;28;20690;-60
2022/09/29 04:34:56;;;;;;;5.20;3.53;;;;;;;;;;5092913;28;20123;-60
2022/09/29 04:37:22;;;;;;;5.18;3.58;;;;;;;;;;5092987;28;20050;-60
2022/09/29 04:39:49;;;;;;;6.15;3.20;;;;;;;;;;5112692;28;20040;-60
2022/09/29 04:42:15;;;;;;;6.20;3.35;;;;;;;;;;5094444;28;20039;-60
2022/09/29 04:44:41;;;;;;;5.63;3.42;;;;;;;;;;5113324;28;20434;-60
2022/09/29 04:47:07;;;;;;;3.63;3.33;;;;;;;;;;5113415;28;20032;-60
2022/09/29 04:49:33;;;;;;;5.18;3.47;;;;;;;;;;5112764;28;20050;-60
2022/09/29 04:51:59;;;;;;;4.15;3.25;;;;;;;;;;5113336;28;20043;-60
2022/09/29 04:54:29;;;;;;;4.60;3.75;;;;;;;;;;5113153;28;20470;-60
2022/09/29 04:56:55;;;;;;;4.43;3.65;;;;;;;;;;5112998;28;20458;-60
2022/09/29 04:59:21;;;;;;;5.22;3.80;;;;;;;;;;5113165;28;20040;-60
2022/09/29 05:01:48;;;;;;;5.32;4.28;;;;;;;;;;5113023;28;20185;-59
2022/09/29 05:04:14;;;;;;;3.95;3.53;;;;;;;;;;5093832;28;20085;-60
2022/09/29 05:06:40;;;;;;;4.18;3.78;;;;;;;;;;5112764;28;20054;-60
2022/09/29 05:09:06;;;;;;;4.75;3.63;;;;;;;;;;5103213;28;20808;-59
2022/09/29 05:11:32;;;;;;;3.92;3.63;;;;;;;;;;5111984;28;20055;-59
2022/09/29 05:13:59;;;;;;;3.47;3.28;;;;;;;;;;5112653;28;20051;-60
2022/09/29 05:16:25;;;;;;;4.22;3.90;;;;;;;;;;5112714;28;20043;-60
2022/09/29 05:18:51;;;;;;;4.00;3.70;;;;;;;;;;5112121;28;20386;-60
2022/09/29 05:21:17;;;;;;;3.63;3.33;;;;;;;;;;5111779;27;20071;-60
2022/09/29 05:23:44;;;;;;;4.13;3.72;;;;;;;;;;5112174;28;20089;-60
2022/09/29 05:26:10;;;;;;;4.38;3.97;;;;;;;;;;5121740;27;20043;-60
2022/09/29 05:28:38;;;;;;;4.30;3.90;;;;;;;;;;5132710;27;20631;-60
2022/09/29 05:31:08;;;;;;;4.03;3.72;;;;;;;;;;5113226;27;20070;-60
2022/09/29 05:33:35;;;;;;;3.97;3.67;;;;;;;;;;5111266;28;20118;-60
2022/09/29 05:36:01;;;;;;;3.90;3.58;;;;;;;;;;5112144;28;20035;-60
2022/09/29 05:38:27;;;;;;;3.85;3.55;;;;;;;;;;5112207;28;20039;-59
2022/09/29 05:40:53;;;;;;;4.07;3.78;;;;;;;;;;5111333;28;20078;-60
2022/09/29 05:43:19;;;;;;;3.85;3.55;;;;;;;;;;5111952;28;20093;-60
2022/09/29 05:45:45;;;;;;;4.07;3.67;;;;;;;;;;5111669;28;20031;-60
2022/09/29 05:48:11;;;;;;;4.55;4.15;;;;;;;;;;5111589;28;20524;-60
2022/09/29 05:50:42;;;;;;;4.47;4.07;;;;;;;;;;5111519;28;20040;-60
2022/09/29 05:53:08;;;;;;;4.35;4.00;;;;;;;;;;5111860;28;20044;-60
2022/09/29 05:55:38;;;;;;;4.60;4.10;;;;;;;;;;5111316;28;20036;-60
2022/09/29 05:58:04;;;;;;;6.25;5.47;;;;;;;;;;5111407;28;20497;-59
2022/09/29 06:00:31;;;;;;;5.45;4.88;;;;;;;;;;5111648;28;20036;-60
2022/09/29 06:02:59;;;;;;;6.25;4.70;;;;;;;;;;5111301;28;20109;-59
2022/09/29 06:05:25;;;;;;;6.15;4.40;;;;;;;;;;5123416;27;20047;-60
2022/09/29 06:07:51;;;;;;;5.32;4.88;;;;;;;;;;5111575;28;20040;-60
2022/09/29 06:10:18;;;;;;;10.00;5.43;;;;;;;;;;5110533;28;20052;-59
2022/09/29 06:12:44;;;;;;;10.50;5.78;;;;;;;;;;5110662;28;20075;-60
2022/09/29 06:15:11;;;;;;;12.07;6.15;;;;;;;;;;5114047;27;20050;-60
2022/09/29 06:17:37;;;;;;;12.18;6.20;;;;;;;;;;5110327;28;20036;-60
2022/09/29 06:20:04;;;;;;;11.15;6.00;;;;;;;;;;5111137;28;20493;-60
2022/09/29 06:22:30;;;;;;;8.98;5.88;;;;;;;;;;5110963;28;20043;-60
2022/09/29 06:24:56;;;;;;;13.00;7.07;;;;;;;;;;5110815;28;20087;-60
2022/09/29 06:27:22;;;;;;;8.15;6.25;;;;;;;;;;5111212;27;20375;-60
2022/09/29 06:29:48;;;;;;;9.27;6.70;;;;;;;;;;5110677;28;20118;-60
2022/09/29 06:32:14;;;;;;;10.90;7.50;;;;;;;;;;5092167;27;20058;-64
2022/09/29 06:37:33;;;;;;;14.70;8.25;;;;;;;;;;5116907;27;20443;-61
2022/09/29 06:37:36;;;;;;;14.85;8.88;;;;;;;;;;5101331;27;20039;-62
2022/09/29 06:40:06;;;;;;;16.02;8.55;;;;;;;;;;5111095;27;20054;-62
2022/09/29 06:42:33;;;;;;;15.43;8.50;;;;;;;;;;5102657;28;20181;-61
2022/09/29 06:44:59;;;;;;;15.43;9.70;;;;;;;;;;5109711;28;20130;-63
2022/09/29 06:47:25;;;;;;;18.17;9.32;;;;;;;;;;5114375;27;20043;-63
2022/09/29 06:49:51;;;;;;;17.33;9.88;;;;;;;;;;5093770;28;20449;-63
2022/09/29 06:52:18;;;;;;;17.73;11.65;;;;;;;;;;5109599;28;20040;-62
2022/09/29 06:54:44;;;;;;;25.40;13.80;;;;;;;;;;5109173;28;20355;-62
2022/09/29 06:57:10;;;;;;;28.95;13.32;;;;;;;;;;5109017;28;20043;-63
2022/09/29 06:59:36;;;;;;;24.60;14.52;;;;;;;;;;5109398;28;20043;-62
2022/09/29 07:02:02;;;;;;;23.20;14.00;;;;;;;;;;5108904;28;20169;-63
2022/09/29 07:04:28;;;;;;;24.10;14.82;;;;;;;;;;5109363;28;20051;-62
2022/09/29 07:06:54;;;;;;;23.35;15.60;;;;;;;;;;5110596;28;20584;-61
2022/09/29 07:09:22;;;;;;;23.98;14.50;;;;;;;;;;5101400;28;20052;-63
2022/09/29 07:11:49;;;;;;;26.23;14.85;;;;;;;;;;5109785;28;20031;-65
2022/09/29 07:14:16;;;;;;;24.23;16.30;;;;;;;;;;5098119;28;20172;-64
2022/09/29 07:16:42;;;;;;;26.42;15.80;;;;;;;;;;5110501;28;20047;-64
2022/09/29 07:19:09;;;;;;;26.70;16.70;;;;;;;;;;5109036;28;20047;-66
2022/09/29 07:21:35;;;;;;;24.58;16.13;;;;;;;;;;5109397;28;20051;-64
2022/09/29 07:24:01;;;;;;;26.25;16.45;;;;;;;;;;5115817;28;20043;-64
2022/09/29 07:26:28;;;;;;;28.45;15.77;;;;;;;;;;5110849;28;20040;-63
2022/09/29 07:28:54;;;;;;;24.85;16.80;;;;;;;;;;5107134;28;20039;-63
2022/09/29 07:31:20;;;;;;;22.40;15.48;;;;;;;;;;5106771;28;20032;-64
2022/09/29 07:33:48;;;;;;;23.92;16.00;;;;;;;;;;5111673;27;20039;-63
2022/09/29 07:36:15;;;;;;;22.77;14.73;;;;;;;;;;5115720;27;20050;-64
2022/09/29 07:38:41;;;;;;;23.80;16.17;;;;;;;;;;5111624;28;20044;-64
2022/09/29 07:41:09;;;;;;;24.92;16.52;;;;;;;;;;5110141;27;20041;-62
2022/09/29 07:43:36;;;;;;;25.42;15.07;;;;;;;;;;5112855;27;20050;-66
2022/09/29 07:46:02;;;;;;;20.90;15.25;;;;;;;;;;5114102;27;20036;-66
2022/09/29 07:48:29;;;;;;;21.88;15.15;;;;;;;;;;5105805;27;20463;-65
2022/09/29 07:51:21;;;;;;;25.75;15.95;;;;;;;;;;5116265;27;20096;-66
2022/09/29 07:53:47;;;;;;;23.50;15.25;;;;;;;;;;5119752;27;20052;-66
2022/09/29 07:56:16;;;;;;;22.75;14.70;;;;;;;;;;5110736;28;20039;-66
2022/09/29 07:58:42;;;;;;;23.35;15.68;;;;;;;;;;5111216;27;20035;-66
2022/09/29 08:01:11;;;;;;;23.23;16.52;;;;;;;;;;5111593;27;20084;-65
2022/09/29 08:03:40;;;;;;;24.02;15.40;;;;;;;;;;5112764;27;20069;-65
2022/09/29 08:06:07;;;;;;;23.50;16.05;;;;;;;;;;5111453;27;20452;-65
2022/09/29 08:08:39;;;;;;;23.92;15.27;;;;;;;;;;5114545;27;20036;-66
2022/09/29 08:11:06;;;;;;;23.75;15.13;;;;;;;;;;5106896;28;20046;-64
2022/09/29 08:13:33;;;;;;;23.63;15.90;;;;;;;;;;5117876;27;20079;-67
2022/09/29 08:16:00;;;;;;;19.23;12.95;;;;;;;;;;5110102;27;20488;-67
2022/09/29 08:18:27;;;;;;;22.33;14.52;;;;;;;;;;5119818;27;20406;-65
2022/09/29 08:20:53;;;;;;;18.63;13.43;;;;;;;;;;5108323;28;20054;-67
2022/09/29 08:23:19;;;;;;;17.75;13.88;;;;;;;;;;5105989;27;20067;-66
2022/09/29 08:25:45;;;;;;;20.73;13.63;;;;;;;;;;5091695;28;20063;-65
2022/09/29 08:28:11;;;;;;;23.90;15.20;;;;;;;;;;5108469;27;20478;-65
2022/09/29 08:30:38;;;;;;;22.20;14.98;;;;;;;;;;5112904;27;20051;-65
2022/09/29 08:33:07;;;;;;;20.25;14.85;;;;;;;;;;5117876;27;20039;-65
2022/09/29 08:35:33;;;;;;;17.77;12.80;;;;;;;;;;5111560;27;20474;-67
2022/09/29 08:37:59;;;;;;;20.42;14.52;;;;;;;;;;5109780;28;20462;-65
2022/09/29 08:40:30;;;;;;;18.92;12.57;;;;;;;;;;5096689;28;20047;-66
2022/09/29 08:43:16;;;;;;;21.52;14.65;;;;;;;;;;5108322;27;20360;-65
2022/09/29 08:45:45;;;;;;;23.58;15.80;;;;;;;;;;5096810;27;20116;-65
2022/09/29 08:48:14;;;;;;;20.95;15.27;;;;;;;;;;5116947;27;20216;-65
2022/09/29 08:50:47;;;;;;;19.08;14.38;;;;;;;;;;5108552;28;20119;-63
2022/09/29 08:53:15;;;;;;;22.80;15.70;;;;;;;;;;5108885;27;20117;-64
2022/09/29 08:56:08;;;;;;;19.55;14.57;;;;;;;;;;5109407;27;20035;-65
2022/09/29 08:58:34;;;;;;;21.63;15.70;;;;;;;;;;5106171;27;20051;-65
2022/09/29 09:01:12;;;;;;;18.25;14.32;;;;;;;;;;5103162;28;20086;-68
2022/09/29 09:03:53;;;;;;;20.77;14.68;;;;;;;;;;5101515;27;20162;-64
2022/09/29 09:06:23;;;;;;;18.35;13.63;;;;;;;;;;5111041;27;20072;-69
2022/09/29 09:08:55;;;;;;;17.83;13.98;;;;;;;;;;5088861;28;20094;-65
2022/09/29 09:11:39;;;;;;;16.23;13.18;;;;;;;;;;5107415;28;20072;-64
2022/09/29 09:14:15;;;;;;;16.35;12.90;;;;;;;;;;5117545;27;20093;-67
2022/09/29 09:16:47;;;;;;;18.67;14.57;;;;;;;;;;5084610;27;20050;-64
2022/09/29 09:19:31;;;;;;;18.83;14.30;;;;;;;;;;5098541;28;20051;-64
2022/09/29 09:22:14;;;;;;;18.77;13.63;;;;;;;;;;5109560;28;20051;-64
2022/09/29 09:24:40;;;;;;;19.00;14.50;;;;;;;;;;5108894;27;20132;-62
2022/09/29 09:27:11;;;;;;;19.92;13.63;;;;;;;;;;5113454;27;20072;-64
2022/09/29 09:29:42;;;;;;;18.38;13.35;;;;;;;;;;5120962;27;20032;-62
2022/09/29 09:32:20;;;;;;;18.75;12.98;;;;;;;;;;5095997;28;20505;-63
2022/09/29 09:34:55;;;;;;;15.93;12.55;;;;;;;;;;5119918;27;20044;-62
2022/09/29 09:37:24;;;;;;;16.10;11.45;;;;;;;;;;5120141;27;20063;-62
2022/09/29 09:39:56;;;;;;;16.48;10.90;;;;;;;;;;5110307;27;20028;-64
2022/09/29 09:42:25;;;;;;;14.90;10.88;;;;;;;;;;5099829;27;20048;-65
2022/09/29 09:45:13;;;;;;;13.75;10.48;;;;;;;;;;5114891;27;20043;-64
2022/09/29 09:47:50;;;;;;;13.27;10.68;;;;;;;;;;5104683;28;20110;-64
2022/09/29 09:50:22;;;;;;;15.25;11.68;;;;;;;;;;5100386;28;20047;-63
2022/09/29 09:52:51;;;;;;;11.30;8.77;;;;;;;;;;5107603;27;20031;-65
2022/09/29 09:55:29;;;;;;;10.93;8.05;;;;;;;;;;5089641;27;20317;-63
2022/09/29 09:57:59;;;;;;;11.50;8.88;;;;;;;;;;5117687;27;20055;-64
2022/09/29 10:00:25;;;;;;;11.48;9.32;;;;;;;;;;5091081;28;20579;-64
2022/09/29 10:02:55;;;;;;;11.93;9.35;;;;;;;;;;5102475;27;20047;-64
2022/09/29 10:05:29;;;;;;;11.77;8.25;;;;;;;;;;5108278;27;20046;-63
2022/09/29 10:07:55;;;;;;;13.88;9.77;;;;;;;;;;5102267;27;20036;-64
2022/09/29 10:10:26;;;;;;;7.88;5.68;;;;;;;;;;5103478;27;20056;-67
2022/09/29 10:13:12;;;;;;;6.00;5.13;;;;;;;;;;5105468;28;20569;-64
2022/09/29 10:15:42;;;;;;;12.57;7.45;;;;;;;;;;5118642;27;20081;-64
2022/09/29 10:18:27;;;;;;;8.95;6.47;;;;;;;;;;5110430;27;20430;-63
2022/09/29 10:20:53;;;;;;;11.57;7.78;;;;;;;;;;5125711;27;20039;-62
2022/09/29 10:23:19;;;;;;;8.50;7.05;;;;;;;;;;5105855;27;20051;-62
2022/09/29 10:26:08;;;;;;;8.27;6.40;;;;;;;;;;5113986;27;20039;-62
2022/09/29 10:28:54;;;;;;;8.15;5.28;;;;;;;;;;5115393;27;20031;-62
2022/09/29 10:31:23;;;;;;;8.60;6.82;;;;;;;;;;5117285;27;20048;-63
2022/09/29 10:33:50;;;;;;;7.18;5.15;;;;;;;;;;5109235;28;20079;-62
2022/09/29 10:36:19;;;;;;;9.07;5.05;;;;;;;;;;5108691;28;20156;-62
2022/09/29 10:38:52;;;;;;;8.07;4.80;;;;;;;;;;5111174;27;20043;-62
2022/09/29 10:41:18;;;;;;;6.25;4.25;;;;;;;;;;5108910;28;20036;-63
2022/09/29 10:43:45;;;;;;;8.23;4.35;;;;;;;;;;5108781;28;20071;-63
2022/09/29 10:46:40;;;;;;;6.35;4.63;;;;;;;;;;5109614;28;20053;-63
2022/09/29 10:49:12;;;;;;;8.90;4.93;;;;;;;;;;5094985;27;20039;-63
2022/09/29 10:51:39;;;;;;;7.28;4.22;;;;;;;;;;5108916;28;20040;-63
2022/09/29 10:54:10;;;;;;;5.63;3.85;;;;;;;;;;5109727;28;20355;-62
2022/09/29 10:56:36;;;;;;;4.03;3.22;;;;;;;;;;5114992;27;20044;-64
2022/09/29 10:59:03;;;;;;;3.83;3.17;;;;;;;;;;5091008;28;20051;-66
2022/09/29 11:01:31;;;;;;;4.50;2.63;;;;;;;;;;5102465;28;20657;-64
2022/09/29 11:04:02;;;;;;;3.15;2.85;;;;;;;;;;5109307;28;20050;-65
2022/09/29 11:06:35;;;;;;;4.78;3.90;;;;;;;;;;5108651;28;20603;-63
2022/09/29 11:09:04;;;;;;;4.30;3.15;;;;;;;;;;5091534;28;20040;-65
2022/09/29 11:11:38;;;;;;;6.53;3.25;;;;;;;;;;5094227;28;20134;-63
2022/09/29 11:14:04;;;;;;;3.13;2.78;;;;;;;;;;5112967;28;20108;-66
2022/09/29 11:16:30;;;;;;;5.45;2.30;;;;;;;;;;5113111;28;20471;-64
2022/09/29 11:19:15;;;;;;;2.47;2.10;;;;;;;;;;5113932;28;20131;-65
2022/09/29 11:21:47;;;;;;;3.88;2.35;;;;;;;;;;5112716;28;20089;-66
2022/09/29 11:24:13;;;;;;;6.20;2.22;;;;;;;;;;5113439;28;20035;-64
2022/09/29 11:26:48;;;;;;;2.30;1.98;;;;;;;;;;5113420;28;20436;-64
2022/09/29 11:29:44;;;;;;;2.88;2.45;;;;;;;;;;5112545;28;20040;-64
2022/09/29 11:32:13;;;;;;;4.10;2.65;;;;;;;;;;5085106;28;20055;-64
2022/09/29 11:34:39;;;;;;;2.92;2.63;;;;;;;;;;5113251;28;20051;-65
2022/09/29 11:37:11;;;;;;;2.72;2.35;;;;;;;;;;5093749;28;20040;-65
2022/09/29 11:39:56;;;;;;;3.33;2.97;;;;;;;;;;5112862;28;20044;-65
2022/09/29 11:42:25;;;;;;;4.15;2.88;;;;;;;;;;5112915;28;20786;-65
2022/09/29 11:44:51;;;;;;;4.05;2.92;;;;;;;;;;5112162;28;20039;-63
2022/09/29 11:47:25;;;;;;;3.60;2.80;;;;;;;;;;5112282;28;20507;-63
2022/09/29 11:49:54;;;;;;;3.88;2.75;;;;;;;;;;5112721;27;20080;-65
2022/09/29 11:52:27;;;;;;;3.60;2.90;;;;;;;;;;5111718;28;20040;-63
2022/09/29 11:55:18;;;;;;;3.42;2.80;;;;;;;;;;5099510;27;20047;-64
2022/09/29 11:57:44;;;;;;;3.10;2.53;;;;;;;;;;5109954;28;20136;-65
2022/09/29 12:00:15;;;;;;;2.63;2.13;;;;;;;;;;5111851;28;20092;-64
2022/09/29 12:02:49;;;;;;;2.80;2.17;;;;;;;;;;5114163;27;20032;-66
2022/09/29 12:05:18;;;;;;;3.28;2.40;;;;;;;;;;5110660;28;20047;-66
2022/09/29 12:08:05;;;;;;;2.20;2.00;;;;;;;;;;5111495;28;20569;-63
2022/09/29 12:10:42;;;;;;;2.22;1.90;;;;;;;;;;5071881;28;20435;-61
2022/09/29 12:13:17;;;;;;;2.83;2.20;;;;;;;;;;5108229;28;20040;-63
2022/09/29 12:15:50;;;;;;;2.90;2.60;;;;;;;;;;5111250;28;20425;-66
2022/09/29 12:18:22;;;;;;;2.85;2.50;;;;;;;;;;5111687;28;20685;-65
2022/09/29 12:20:50;;;;;;;4.80;2.80;;;;;;;;;;5112024;28;20044;-64
2022/09/29 12:23:18;;;;;;;3.83;2.30;;;;;;;;;;5111098;28;20035;-64
2022/09/29 12:25:58;;;;;;;3.65;2.30;;;;;;;;;;5110863;27;20575;-64
2022/09/29 12:28:29;;;;;;;2.53;1.75;;;;;;;;;;5110294;28;20079;-62
2022/09/29 12:30:58;;;;;;;1.60;1.50;;;;;;;;;;5111594;28;20050;-62
2022/09/29 12:33:36;;;;;;;2.17;1.35;;;;;;;;;;5110469;28;20038;-62
2022/09/29 12:39:19;;;;;;;1.70;1.60;;;;;;;;;;5112018;27;20412;-63
2022/09/29 12:41:49;;;;;;;1.83;1.40;;;;;;;;;;5110801;27;20039;-63
2022/09/29 12:44:41;;;;;;;2.33;1.30;;;;;;;;;;5115553;27;20044;-64
2022/09/29 12:47:12;;;;;;;2.35;1.10;;;;;;;;;;5058132;28;20051;-65
2022/09/29 12:49:44;;;;;;;1.30;1.02;;;;;;;;;;5124080;27;20128;-63
2022/09/29 12:52:17;;;;;;;0.70;0.70;;;;;;;;;;5093112;28;20050;-63
2022/09/29 12:54:49;;;;;;;1.05;0.75;;;;;;;;;;5111751;28;20119;-62
2022/09/29 12:57:17;;;;;;;1.23;0.60;;;;;;;;;;5109729;28;20121;-62
2022/09/29 12:59:45;;;;;;;1.92;0.88;;;;;;;;;;5110925;28;20039;-62
2022/09/29 13:02:30;;;;;;;1.25;0.80;;;;;;;;;;5111166;28;20036;-61
2022/09/29 13:05:22;;;;;;;0.90;0.40;;;;;;;;;;5108566;28;20039;-64
2022/09/29 13:07:51;;;;;;;1.75;0.90;;;;;;;;;;5055098;28;20083;-64
2022/09/29 13:10:37;;;;;;;0.30;0.30;;;;;;;;;;5092904;28;20092;-64
2022/09/29 13:13:22;;;;;;;2.17;0.80;;;;;;;;;;5110296;28;20078;-64
2022/09/29 13:15:51;;;;;;;1.48;0.90;;;;;;;;;;5110782;28;20123;-64
2022/09/29 13:18:18;;;;;;;1.20;0.55;;;;;;;;;;5108065;28;20058;-63
2022/09/29 13:21:08;;;;;;;0.82;0.55;;;;;;;;;;5108362;28;20047;-63
2022/09/29 13:23:53;;;;;;;2.17;0.52;;;;;;;;;;5117652;27;20413;-63
2022/09/29 13:26:19;;;;;;;1.45;0.70;;;;;;;;;;5109228;27;20509;-62
2022/09/29 13:28:49;;;;;;;1.02;0.75;;;;;;;;;;5110315;28;20071;-65
2022/09/29 13:31:21;;;;;;;1.50;1.10;;;;;;;;;;5110843;27;20046;-63
2022/09/29 13:33:48;;;;;;;0.98;0.77;;;;;;;;;;5098870;27;20481;-64
2022/09/29 13:36:35;;;;;;;1.08;0.90;;;;;;;;;;5094813;28;20079;-64
2022/09/29 13:39:01;;;;;;;3.45;1.00;;;;;;;;;;5113117;27;20104;-64
2022/09/29 13:41:30;;;;;;;1.00;0.90;;;;;;;;;;5096235;28;20047;-65
2022/09/29 13:43:56;;;;;;;1.20;1.00;;;;;;;;;;5104892;28;20051;-66
2022/09/29 13:46:25;;;;;;;1.83;0.80;;;;;;;;;;5093350;28;20047;-65
2022/09/29 13:48:53;;;;;;;1.08;0.77;;;;;;;;;;5112209;27;20039;-65
2022/09/29 13:51:23;;;;;;;1.85;1.10;;;;;;;;;;5113133;27;20145;-65
2022/09/29 13:54:09;;;;;;;1.52;1.10;;;;;;;;;;5111950;27;20126;-65
2022/09/29 13:56:35;;;;;;;1.25;1.10;;;;;;;;;;5109314;28;20047;-64
2022/09/29 13:59:01;;;;;;;1.95;1.27;;;;;;;;;;5111112;28;20062;-63
2022/09/29 14:01:30;;;;;;;2.22;1.20;;;;;;;;;;5114828;27;20039;-63
2022/09/29 14:03:57;;;;;;;2.17;1.05;;;;;;;;;;5109892;28;20043;-65
2022/09/29 14:06:24;;;;;;;5.70;1.00;;;;;;;;;;5092362;28;20127;-64
2022/09/29 14:08:59;;;;;;;2.10;0.80;;;;;;;;;;5091247;28;20047;-64
2022/09/29 14:11:28;;;;;;;1.05;0.80;;;;;;;;;;5108624;28;20066;-62
2022/09/29 14:14:13;;;;;;;2.40;0.85;;;;;;;;;;5110067;28;20553;-61
2022/09/29 14:17:00;;;;;;;1.55;1.20;;;;;;;;;;5109764;28;20470;-64
2022/09/29 14:19:41;;;;;;;1.88;1.40;;;;;;;;;;5109610;28;20382;-64
2022/09/29 14:22:43;;;;;;;2.33;1.10;;;;;;;;;;5077361;28;20048;-64
2022/09/29 14:25:09;;;;;;;1.20;1.00;;;;;;;;;;5006014;28;20305;-65
2022/09/29 14:27:38;;;;;;;1.92;1.00;;;;;;;;;;5088568;28;20047;-64
2022/09/29 14:30:23;;;;;;;1.45;0.98;;;;;;;;;;5110187;28;20032;-64
2022/09/29 14:32:54;;;;;;;1.67;0.90;;;;;;;;;;5081774;28;20082;-64
2022/09/29 14:35:34;;;;;;;2.10;1.15;;;;;;;;;;5097785;28;20043;-64
2022/09/29 14:38:19;;;;;;;1.10;0.93;;;;;;;;;;5090453;28;20656;-63
2022/09/29 14:40:55;;;;;;;1.70;1.00;;;;;;;;;;5109340;28;20096;-65
2022/09/29 14:43:24;;;;;;;0.75;0.70;;;;;;;;;;5110266;28;20427;-63
2022/09/29 14:51:58;;;;;;;2.25;0.80;;;;;;;;;;5110663;28;20040;-66
2022/09/29 14:54:41;;;;;;;2.15;1.00;;;;;;;;;;5110029;28;20048;-65
2022/09/29 14:57:08;;;;;;;1.27;0.93;;;;;;;;;;5109955;28;20078;-66
2022/09/29 14:59:34;;;;;;;1.63;1.08;;;;;;;;;;5111011;28;20085;-66
2022/09/29 15:02:10;;;;;;;1.75;1.00;;;;;;;;;;5111030;28;20050;-66
2022/09/29 15:04:39;;;;;;;1.17;1.00;;;;;;;;;;5110425;28;20109;-66